Time;durP1;ratioP1;P1;durP2;ratioP2;P2;SDS_P1;SDS_P2;PMS_P1;PMS_P2;Temp;Humidity;BMP_temperature;BMP_pressure;BME280_temperature;BME280_humidity;BME280_pressure;Samples;Min_cycle;Max_cycle;Signal;HPM_P1;HPM_P2
2021/04/19 00:00:20;;;;;;;6.08;5.40;;;;;;;14.86;54.34;101576.60;1741671;82;21145;-45
2021/04/19 00:02:48;;;;;;;5.80;4.97;;;;;;;14.85;54.43;101578.80;1778080;81;21153;-49
2021/04/19 00:05:18;;;;;;;7.28;6.00;;;;;;;14.83;54.73;101576.66;1772622;81;21613;-46
2021/04/19 00:07:46;;;;;;;8.43;5.90;;;;;;;14.82;55.04;101578.42;1767278;81;21569;-48
2021/04/19 00:10:17;;;;;;;6.47;4.95;;;;;;;14.85;55.18;101574.86;1770277;81;21121;-49
2021/04/19 00:12:46;;;;;;;5.78;5.20;;;;;;;14.87;55.39;101576.55;1776915;81;21589;-50
2021/04/19 00:15:17;;;;;;;5.67;5.17;;;;;;;14.91;55.39;101585.19;1766304;81;21165;-46
2021/04/19 00:17:45;;;;;;;5.15;4.67;;;;;;;14.92;55.60;101586.92;1677560;85;22499;-48
2021/04/19 00:20:16;;;;;;;7.75;5.45;;;;;;;14.95;55.45;101584.20;1677601;85;21180;-48
2021/04/19 00:22:43;;;;;;;7.28;5.47;;;;;;;14.92;55.57;101586.92;1677653;85;21225;-47
2021/04/19 00:25:14;;;;;;;5.40;4.80;;;;;;;14.91;55.63;101590.42;1677690;85;21307;-46
2021/04/19 00:27:43;;;;;;;5.95;5.42;;;;;;;14.90;55.85;101584.79;1677686;85;21205;-47
2021/04/19 00:30:12;;;;;;;5.87;5.33;;;;;;;14.92;56.00;101576.44;1677606;85;21197;-49
2021/04/19 00:32:40;;;;;;;7.35;6.62;;;;;;;14.90;56.21;101573.00;1677961;85;21213;-48
2021/04/19 00:35:10;;;;;;;6.30;5.70;;;;;;;14.90;56.25;101566.45;1677458;85;21243;-46
2021/04/19 00:37:38;;;;;;;7.05;6.35;;;;;;;14.91;56.52;101568.16;1677760;85;21153;-45
2021/04/19 00:40:09;;;;;;;6.60;5.87;;;;;;;14.88;56.49;101561.70;1677737;85;21625;-48
2021/04/19 00:42:44;;;;;;;7.47;6.40;;;;;;;14.87;56.78;101559.96;1807726;79;22257;-45
2021/04/19 00:45:13;;;;;;;8.50;6.60;;;;;;;14.81;56.90;101563.61;1765797;80;21282;-49
2021/04/19 00:47:44;;;;;;;7.15;6.45;;;;;;;14.80;57.13;101558.39;1785104;80;21150;-48
2021/04/19 00:50:15;;;;;;;6.55;5.92;;;;;;;14.79;57.25;101546.20;1770522;80;21140;-48
2021/04/19 00:52:42;;;;;;;6.10;5.55;;;;;;;14.78;57.32;101544.47;1769458;80;21135;-46
2021/04/19 00:55:12;;;;;;;7.25;6.15;;;;;;;14.77;57.43;101534.91;1741732;80;21175;-50
2021/04/19 00:57:40;;;;;;;6.45;5.85;;;;;;;14.72;57.38;101536.33;1769902;80;21151;-51
2021/04/19 01:00:13;;;;;;;7.97;6.33;;;;;;;14.68;57.52;101539.49;1771703;80;21175;-47
2021/04/19 01:02:41;;;;;;;6.92;6.22;;;;;;;14.67;57.90;101533.83;1759294;80;21152;-50
2021/04/19 01:05:21;;;;;;;7.15;6.45;;;;;;;14.68;57.99;101539.49;1773054;80;21140;-48
2021/04/19 01:07:49;;;;;;;7.42;6.33;;;;;;;14.66;58.12;101536.05;1730329;82;21135;-51
2021/04/19 01:10:17;;;;;;;7.80;7.03;;;;;;;14.64;58.47;101536.98;1734765;82;21195;-46
2021/04/19 01:12:46;;;;;;;7.00;6.35;;;;;;;14.62;58.68;101543.58;1734757;82;21159;-49
2021/04/19 01:15:15;;;;;;;6.90;6.05;;;;;;;14.64;58.88;101539.61;1735935;82;21620;-46
2021/04/19 01:17:44;;;;;;;6.95;6.33;;;;;;;14.65;58.92;101543.48;1736404;82;21159;-52
2021/04/19 01:20:16;;;;;;;8.58;6.80;;;;;;;14.68;59.02;101534.25;1736310;82;21234;-46
2021/04/19 01:22:45;;;;;;;6.62;6.03;;;;;;;14.74;59.07;101542.83;1736423;82;21639;-48
2021/04/19 01:25:17;;;;;;;7.30;6.53;;;;;;;14.77;58.95;101544.08;1736466;82;21763;-45
2021/04/19 01:27:47;;;;;;;7.12;6.42;;;;;;;14.76;58.66;101543.66;1736267;82;21128;-46
2021/04/19 01:30:17;;;;;;;8.00;7.20;;;;;;;14.71;58.92;101546.42;1735770;82;21120;-49
2021/04/19 01:32:46;;;;;;;7.65;6.95;;;;;;;14.71;58.96;101542.93;1723879;82;21200;-49
2021/04/19 01:35:15;;;;;;;8.50;7.58;;;;;;;14.68;58.91;101540.80;1735578;82;21140;-47
2021/04/19 01:37:44;;;;;;;7.72;6.92;;;;;;;14.66;59.03;101546.53;1737138;82;21100;-51
2021/04/19 01:40:15;;;;;;;7.65;6.85;;;;;;;14.63;59.25;101542.67;1733737;82;21152;-46
2021/04/19 01:42:44;;;;;;;7.87;7.08;;;;;;;14.62;59.13;101545.33;1734895;82;21601;-46
2021/04/19 01:45:14;;;;;;;8.50;7.70;;;;;;;14.62;59.34;101542.27;1732766;82;21175;-49
2021/04/19 01:47:43;;;;;;;7.50;6.90;;;;;;;14.66;59.40;101542.60;1742865;81;21164;-49
2021/04/19 01:50:18;;;;;;;8.43;7.53;;;;;;;14.72;59.39;101540.70;1735805;82;21608;-49
2021/04/19 01:52:53;;;;;;;8.15;7.17;;;;;;;14.77;59.08;101537.53;1802076;79;22600;-48
2021/04/19 01:55:24;;;;;;;8.03;7.25;;;;;;;14.74;59.00;101534.97;1787286;80;21152;-49
2021/04/19 01:58:06;;;;;;;7.33;6.62;;;;;;;14.68;59.14;101543.42;1783465;80;21183;-47
2021/04/19 02:00:37;;;;;;;7.47;6.78;;;;;;;14.68;59.18;101536.88;1777557;80;21596;-50
2021/04/19 02:03:28;;;;;;;8.35;7.50;;;;;;;14.71;59.14;101544.23;1765887;80;21175;-49
2021/04/19 02:06:09;;;;;;;8.53;7.50;;;;;;;14.72;59.12;101543.33;1791116;80;21140;-46
2021/04/19 02:08:45;;;;;;;8.10;7.30;;;;;;;14.72;58.94;101540.27;1784167;80;21136;-45
2021/04/19 02:11:39;;;;;;;7.80;7.00;;;;;;;14.74;58.98;101540.21;1790815;80;21159;-47
2021/04/19 02:14:31;;;;;;;7.90;7.03;;;;;;;14.77;58.88;101535.78;1766333;80;21176;-50
2021/04/19 02:17:17;;;;;;;7.50;6.75;;;;;;;14.76;59.04;101535.80;1775528;80;21132;-47
2021/04/19 02:20:17;;;;;;;8.28;7.50;;;;;;;14.77;59.07;101538.84;1755174;80;21176;-47
2021/04/19 02:22:54;;;;;;;8.48;7.55;;;;;;;14.79;59.06;101543.59;1783953;80;21125;-48
2021/04/19 02:25:41;;;;;;;10.58;8.60;;;;;;;14.85;58.98;101541.67;1714822;81;21164;-47
2021/04/19 02:28:17;;;;;;;8.00;7.20;;;;;;;14.92;58.87;101543.68;1742340;81;21119;-47
2021/04/19 02:30:48;;;;;;;8.23;7.42;;;;;;;14.95;58.64;101546.20;1643532;86;21223;-49
2021/04/19 02:33:18;;;;;;;8.50;7.60;;;;;;;14.94;58.71;101543.19;1708277;83;21201;-47
2021/04/19 02:35:47;;;;;;;8.05;7.25;;;;;;;14.92;58.76;101537.12;1714343;84;21184;-45
2021/04/19 02:38:18;;;;;;;7.78;7.08;;;;;;;14.90;58.85;101537.14;1712142;83;21149;-47
2021/04/19 02:40:49;;;;;;;8.18;7.45;;;;;;;14.88;58.97;101535.50;1712608;83;21188;-47
2021/04/19 02:43:18;;;;;;;7.92;6.50;;;;;;;14.89;58.96;101526.72;1709949;83;21188;-49
2021/04/19 02:45:45;;;;;;;7.35;6.65;;;;;;;14.92;58.89;101532.72;1710336;83;21255;-47
2021/04/19 02:48:15;;;;;;;8.13;7.03;;;;;;;14.91;59.00;101532.77;1707327;83;21299;-49
2021/04/19 02:50:45;;;;;;;8.05;7.25;;;;;;;14.91;59.12;101534.09;1706896;83;21184;-47
2021/04/19 02:53:13;;;;;;;7.87;6.87;;;;;;;14.92;59.14;101534.03;1702798;83;21589;-45
2021/04/19 02:55:41;;;;;;;7.97;7.17;;;;;;;14.98;58.98;101533.03;1691665;84;21185;-51
2021/04/19 02:58:20;;;;;;;8.90;8.00;;;;;;;15.06;58.84;101532.36;1802111;79;23064;-48
2021/04/19 03:00:49;;;;;;;8.60;7.42;;;;;;;15.00;58.77;101529.44;1791346;80;21742;-50
2021/04/19 03:03:25;;;;;;;9.20;7.62;;;;;;;15.03;58.74;101531.13;1793017;80;21298;-50
2021/04/19 03:05:58;;;;;;;8.60;7.58;;;;;;;15.15;58.68;101524.22;1815237;79;23077;-51
2021/04/19 03:08:30;;;;;;;7.60;6.90;;;;;;;15.12;58.60;101528.26;1782062;80;21668;-49
2021/04/19 03:11:19;;;;;;;7.55;6.83;;;;;;;15.10;58.63;101527.00;1748039;81;21202;-47
2021/04/19 03:13:47;;;;;;;8.30;7.50;;;;;;;15.09;58.72;101526.58;1740248;81;21585;-51
2021/04/19 03:16:19;;;;;;;8.03;7.22;;;;;;;15.07;58.85;101524.89;1710022;83;21205;-48
2021/04/19 03:18:47;;;;;;;7.28;6.58;;;;;;;15.06;58.98;101529.74;1725533;83;21591;-46
2021/04/19 03:21:19;;;;;;;8.33;7.53;;;;;;;15.06;58.88;101525.81;1703539;83;21163;-52
2021/04/19 03:23:59;;;;;;;8.43;7.50;;;;;;;15.11;58.95;101526.52;1805787;79;23084;-50
2021/04/19 03:26:33;;;;;;;8.38;7.58;;;;;;;15.10;58.95;101528.75;1739051;82;21190;-51
2021/04/19 03:29:01;;;;;;;8.08;7.28;;;;;;;15.12;58.82;101532.19;1729397;81;21164;-50
2021/04/19 03:31:39;;;;;;;;;;;;;;;15.08;58.88;101524.00;1726922;83;21154;-44
2021/04/19 03:34:23;;;;;;;8.60;7.80;;;;;;;15.02;58.89;101532.04;1690737;83;20195;-49
2021/04/19 03:36:58;;;;;;;8.15;7.35;;;;;;;14.96;59.12;101530.90;1694066;83;21130;-49
2021/04/19 03:39:27;;;;;;;7.95;7.20;;;;;;;14.97;59.25;101540.47;1665751;86;21689;-46
2021/04/19 03:41:55;;;;;;;8.00;7.20;;;;;;;15.05;59.20;101528.87;1702967;84;21211;-49
2021/04/19 03:44:27;;;;;;;9.20;8.25;;;;;;;15.15;58.92;101536.02;1699753;84;21624;-49
2021/04/19 03:46:57;;;;;;;9.00;7.70;;;;;;;15.18;58.84;101537.26;1702980;84;21196;-49
2021/04/19 03:49:47;;;;;;;8.75;7.92;;;;;;;15.23;58.75;101539.28;1699478;84;21136;-46
2021/04/19 03:52:19;;;;;;;8.23;7.35;;;;;;;15.20;58.71;101535.45;1701852;84;21180;-48
2021/04/19 03:54:47;;;;;;;8.43;7.62;;;;;;;15.16;58.69;101533.83;1703174;84;21148;-49
2021/04/19 03:57:20;;;;;;;8.38;7.40;;;;;;;15.13;58.78;101532.58;1702801;84;21200;-48
2021/04/19 03:59:55;;;;;;;8.05;7.35;;;;;;;15.11;58.87;101527.83;1703052;84;21195;-51
2021/04/19 04:02:26;;;;;;;7.90;7.08;;;;;;;15.13;58.93;101528.65;1697713;84;21341;-47
2021/04/19 04:04:58;;;;;;;7.62;6.87;;;;;;;15.16;58.80;101520.72;1695423;84;21238;-47
2021/04/19 04:07:35;;;;;;;8.98;8.15;;;;;;;15.19;58.82;101525.85;1794570;79;28274;-48
2021/04/19 04:10:05;;;;;;;7.92;7.22;;;;;;;15.20;58.71;101534.14;1757119;81;21179;-46
2021/04/19 04:12:35;;;;;;;8.93;8.00;;;;;;;15.27;58.59;101533.08;1770395;80;21593;-48
2021/04/19 04:15:05;;;;;;;7.62;6.87;;;;;;;15.27;58.59;101534.39;1781455;80;21126;-47
2021/04/19 04:17:37;;;;;;;8.20;7.40;;;;;;;15.23;58.68;101536.22;1708927;83;21564;-47
2021/04/19 04:20:15;;;;;;;10.03;9.00;;;;;;;15.27;58.81;101537.84;1792266;79;28175;-45
2021/04/19 04:22:57;;;;;;;8.30;7.28;;;;;;;15.30;58.94;101543.46;1699760;84;21167;-47
2021/04/19 04:25:33;;;;;;;9.25;8.40;;;;;;;15.43;58.91;101541.77;1794638;79;27914;-46
2021/04/19 04:28:04;;;;;;;9.00;8.20;;;;;;;15.44;58.92;101543.51;1771995;80;21160;-49
2021/04/19 04:30:35;;;;;;;8.28;7.45;;;;;;;15.53;58.79;101538.89;1776583;80;21140;-47
2021/04/19 04:33:12;;;;;;;8.58;7.75;;;;;;;15.63;58.63;101540.33;1777635;79;23164;-49
2021/04/19 04:35:42;;;;;;;8.88;8.08;;;;;;;15.63;58.49;101541.20;1735670;82;21168;-48
2021/04/19 04:38:18;;;;;;;8.90;8.10;;;;;;;15.65;58.33;101534.14;1740642;82;21342;-48
2021/04/19 04:40:50;;;;;;;11.85;8.73;;;;;;;15.66;58.14;101537.16;1733594;82;21148;-49
2021/04/19 04:43:23;;;;;;;10.23;7.85;;;;;;;15.68;58.14;101536.69;1737011;82;21152;-48
2021/04/19 04:45:58;;;;;;;8.05;7.22;;;;;;;15.68;58.07;101529.27;1740329;82;21125;-49
2021/04/19 04:49:04;;;;;;;8.58;6.95;;;;;;;15.69;57.88;101533.14;1729595;82;21160;-47
2021/04/19 04:51:32;;;;;;;8.70;7.10;;;;;;;15.70;57.77;101530.94;1746693;81;21143;-46
2021/04/19 04:54:14;;;;;;;8.83;7.90;;;;;;;15.72;57.33;101534.38;1734662;82;21287;-49
2021/04/19 04:56:44;;;;;;;8.03;7.20;;;;;;;15.67;57.23;101529.70;1660353;85;21184;-49
2021/04/19 04:59:12;;;;;;;9.38;8.23;;;;;;;15.64;57.38;101531.58;1655853;86;21197;-47
2021/04/19 05:01:42;;;;;;;8.33;7.53;;;;;;;15.62;57.27;101539.47;1637025;86;21165;-47
2021/04/19 05:04:11;;;;;;;7.60;6.87;;;;;;;15.60;57.27;101533.41;1660729;86;21180;-48
2021/04/19 05:06:43;;;;;;;8.08;7.17;;;;;;;15.61;57.28;101529.89;1635473;86;21188;-47
2021/04/19 05:09:10;;;;;;;8.25;7.47;;;;;;;15.60;57.24;101532.09;1657270;86;21258;-47
2021/04/19 05:11:41;;;;;;;10.23;7.20;;;;;;;15.58;57.31;101533.91;1656699;84;21173;-45
2021/04/19 05:14:15;;;;;;;8.58;7.80;;;;;;;15.67;57.17;101531.02;1796047;79;27816;-48
2021/04/19 05:16:44;;;;;;;9.60;7.70;;;;;;;15.72;56.96;101541.38;1780371;80;21140;-47
2021/04/19 05:19:12;;;;;;;7.58;6.83;;;;;;;15.82;56.58;101537.56;1726744;80;21184;-46
2021/04/19 05:21:40;;;;;;;7.55;6.90;;;;;;;15.88;56.35;101542.18;1778351;80;21184;-47
2021/04/19 05:24:09;;;;;;;12.90;7.92;;;;;;;15.90;56.33;101537.74;1777918;80;21596;-45
2021/04/19 05:26:37;;;;;;;7.35;6.30;;;;;;;15.91;56.10;101539.44;1779428;80;21596;-49
2021/04/19 05:29:05;;;;;;;7.37;6.67;;;;;;;15.89;56.01;101541.25;1780199;80;21245;-48
2021/04/19 05:31:33;;;;;;;8.28;7.45;;;;;;;15.89;55.92;101536.00;1780092;80;21117;-45
2021/04/19 05:34:01;;;;;;;9.15;6.78;;;;;;;15.91;55.95;101536.81;1765559;80;21183;-47
2021/04/19 05:36:29;;;;;;;8.93;7.30;;;;;;;15.92;56.01;101535.06;1776844;80;21156;-48
2021/04/19 05:38:57;;;;;;;7.58;6.72;;;;;;;15.96;55.71;101537.55;1778027;80;21593;-44
2021/04/19 05:41:24;;;;;;;7.87;7.08;;;;;;;15.95;55.71;101537.12;1789326;80;21366;-46
2021/04/19 05:43:52;;;;;;;7.80;6.92;;;;;;;15.96;55.45;101531.42;1791523;79;21152;-44
2021/04/19 05:46:21;;;;;;;7.72;6.92;;;;;;;15.97;55.56;101523.50;1776334;80;21252;-47
2021/04/19 05:48:49;;;;;;;6.83;6.12;;;;;;;16.03;55.67;101525.09;1789302;79;21172;-45
2021/04/19 05:51:24;;;;;;;7.08;6.45;;;;;;;16.04;55.47;101521.55;1791980;79;21132;-45
2021/04/19 05:53:54;;;;;;;7.05;6.33;;;;;;;16.02;55.46;101529.48;1795954;79;21612;-47
2021/04/19 05:56:36;;;;;;;7.00;6.30;;;;;;;16.03;55.58;101519.84;1790814;80;21141;-46
2021/04/19 05:59:26;;;;;;;10.40;6.80;;;;;;;16.02;55.71;101523.36;1802469;79;21294;-47
2021/04/19 06:01:55;;;;;;;8.10;6.60;;;;;;;15.99;55.97;101529.56;1790998;80;21153;-45
2021/04/19 06:04:38;;;;;;;9.03;7.40;;;;;;;16.04;55.81;101534.22;1791374;79;21329;-45
2021/04/19 06:07:15;;;;;;;7.33;6.62;;;;;;;16.06;55.45;101536.34;1777279;80;21160;-45
2021/04/19 06:09:55;;;;;;;11.33;7.85;;;;;;;16.06;55.59;101541.59;1777612;80;21136;-45
2021/04/19 06:12:27;;;;;;;7.93;7.13;;;;;;;16.07;55.88;101539.36;1773563;80;21510;-48
2021/04/19 06:15:01;;;;;;;7.55;6.62;;;;;;;16.15;55.89;101543.08;1763481;81;21164;-46
2021/04/19 06:17:28;;;;;;;9.60;7.00;;;;;;;16.21;55.85;101541.12;1760980;81;21168;-46
2021/04/19 06:19:57;;;;;;;8.18;7.47;;;;;;;16.23;55.90;101542.37;1785291;79;21177;-45
2021/04/19 06:22:25;;;;;;;7.55;6.85;;;;;;;16.26;55.83;101541.80;1762438;80;21172;-48
2021/04/19 06:24:52;;;;;;;8.45;7.60;;;;;;;16.29;55.65;101536.47;1784838;79;21211;-47
2021/04/19 06:27:23;;;;;;;8.40;7.50;;;;;;;16.32;55.63;101537.27;1779480;79;21153;-49
2021/04/19 06:29:52;;;;;;;8.40;7.05;;;;;;;16.38;55.65;101537.07;1698741;82;21138;-48
2021/04/19 06:34:56;;;;;;;9.23;8.10;;;;;;;16.50;55.44;101541.95;1792879;79;28271;-48
2021/04/19 06:37:24;;;;;;;7.78;7.03;;;;;;;16.52;55.49;101545.37;1780367;80;21600;-48
2021/04/19 06:39:52;;;;;;;7.92;7.22;;;;;;;16.61;55.11;101545.08;1779102;80;21172;-44
2021/04/19 06:42:20;;;;;;;8.65;7.03;;;;;;;16.63;55.15;101548.52;1744131;81;21137;-51
2021/04/19 06:44:48;;;;;;;8.10;7.30;;;;;;;16.67;55.27;101544.87;1754075;81;21160;-49
2021/04/19 06:47:17;;;;;;;7.12;6.22;;;;;;;16.74;55.31;101548.98;1740460;81;21172;-47
2021/04/19 06:49:49;;;;;;;7.53;6.83;;;;;;;16.83;55.08;101549.99;1740471;81;21161;-48
2021/04/19 06:52:17;;;;;;;10.60;6.78;;;;;;;16.85;54.59;101541.16;1725547;81;21148;-47
2021/04/19 06:54:45;;;;;;;9.88;7.15;;;;;;;16.82;54.32;101550.89;1738028;81;21160;-47
2021/04/19 06:57:15;;;;;;;8.40;7.15;;;;;;;16.81;54.38;101539.99;1713083;83;21124;-46
2021/04/19 06:59:45;;;;;;;8.25;7.40;;;;;;;16.83;54.47;101547.36;1725264;83;21176;-45
2021/04/19 07:02:21;;;;;;;8.25;7.45;;;;;;;16.83;54.87;101546.05;1707054;83;21307;-48
2021/04/19 07:04:53;;;;;;;7.90;7.20;;;;;;;16.82;55.13;101544.31;1721370;81;21169;-50
2021/04/19 07:07:29;;;;;;;7.87;7.17;;;;;;;16.87;55.21;101541.09;1730624;82;21297;-48
2021/04/19 07:09:58;;;;;;;7.45;6.78;;;;;;;16.95;55.40;101548.25;1736360;82;21596;-45
2021/04/19 07:12:26;;;;;;;8.78;7.17;;;;;;;17.02;55.34;101557.64;1728343;82;21602;-48
2021/04/19 07:14:55;;;;;;;8.10;7.30;;;;;;;17.08;55.20;101550.38;1727789;82;21204;-48
2021/04/19 07:17:22;;;;;;;8.13;7.33;;;;;;;17.16;55.00;101544.86;1739941;82;21159;-45
2021/04/19 07:19:52;;;;;;;7.65;6.87;;;;;;;17.23;54.78;101541.07;1745567;81;21141;-45
2021/04/19 07:22:20;;;;;;;7.53;6.83;;;;;;;17.31;54.57;101542.13;1726793;83;21161;-48
2021/04/19 07:24:48;;;;;;;7.17;6.58;;;;;;;17.33;54.37;101539.81;1721664;83;21310;-45
2021/04/19 07:27:16;;;;;;;8.15;6.15;;;;;;;17.34;54.02;101546.81;1695940;83;21172;-48
2021/04/19 07:29:45;;;;;;;7.22;6.53;;;;;;;17.29;53.96;101543.95;1713646;83;21345;-46
2021/04/19 07:32:14;;;;;;;7.75;6.97;;;;;;;17.17;53.91;101546.55;1750635;81;21562;-46
2021/04/19 07:34:43;;;;;;;8.33;6.70;;;;;;;17.10;54.22;101553.80;1725560;82;21152;-46
2021/04/19 07:37:12;;;;;;;8.40;7.17;;;;;;;17.05;54.02;101557.52;1648594;82;21189;-48
2021/04/19 07:39:42;;;;;;;12.15;9.25;;;;;;;17.01;54.49;101559.41;1713718;83;21167;-45
2021/04/19 07:42:11;;;;;;;10.63;9.10;;;;;;;17.07;54.66;101546.48;1736366;82;21192;-47
2021/04/19 07:44:44;;;;;;;10.70;8.85;;;;;;;17.10;54.53;101551.66;1712568;83;21152;-49
2021/04/19 07:47:43;;;;;;;11.97;7.80;;;;;;;17.02;54.53;101555.02;1727346;82;21136;-45
2021/04/19 07:50:21;;;;;;;7.83;6.62;;;;;;;16.89;54.85;101549.33;1720829;83;21170;-49
2021/04/19 07:53:05;;;;;;;10.15;7.42;;;;;;;16.91;55.23;101551.89;1730634;83;21207;-50
2021/04/19 07:55:37;;;;;;;7.60;6.75;;;;;;;16.92;55.23;101546.58;1732692;82;21157;-47
2021/04/19 07:58:18;;;;;;;10.13;7.03;;;;;;;17.02;55.43;101541.87;1703554;83;21186;-46
2021/04/19 08:01:03;;;;;;;8.08;7.33;;;;;;;17.23;55.36;101543.70;1805920;79;22383;-46
2021/04/19 08:03:38;;;;;;;8.08;6.70;;;;;;;17.31;55.05;101545.59;1773372;80;21608;-46
2021/04/19 08:06:20;;;;;;;7.25;6.55;;;;;;;17.46;54.40;101551.61;1766489;80;21176;-49
2021/04/19 08:08:49;;;;;;;7.17;6.47;;;;;;;17.54;54.22;101548.27;1780600;80;21207;-46
2021/04/19 08:11:18;;;;;;;9.03;6.70;;;;;;;17.64;54.19;101552.73;1780999;80;21164;-48
2021/04/19 08:13:47;;;;;;;8.95;7.50;;;;;;;17.77;54.21;101550.88;1746142;81;21172;-49
2021/04/19 08:16:24;;;;;;;7.53;6.58;;;;;;;17.92;53.59;101548.56;1723030;83;21599;-50
2021/04/19 08:19:01;;;;;;;8.18;6.58;;;;;;;18.05;52.62;101553.75;1677975;85;21592;-47
2021/04/19 08:21:35;;;;;;;9.83;7.28;;;;;;;18.24;52.32;101544.17;1801891;79;23059;-50
2021/04/19 08:24:14;;;;;;;10.65;7.47;;;;;;;18.30;51.62;101541.31;1779435;80;21573;-47
2021/04/19 08:26:55;;;;;;;9.33;7.65;;;;;;;18.40;51.50;101551.87;1784003;80;21152;-46
2021/04/19 08:29:48;;;;;;;8.00;7.25;;;;;;;18.49;51.09;101544.91;1657389;86;21264;-47
2021/04/19 08:32:23;;;;;;;10.75;7.28;;;;;;;18.62;50.62;101543.48;1810268;79;23427;-49
2021/04/19 08:34:51;;;;;;;8.88;7.40;;;;;;;18.59;50.64;101548.87;1777222;80;21750;-49
2021/04/19 08:37:21;;;;;;;8.68;7.62;;;;;;;18.60;50.44;101555.87;1780740;80;21176;-46
2021/04/19 08:39:48;;;;;;;8.18;7.33;;;;;;;18.61;50.07;101557.57;1773850;80;21148;-46
2021/04/19 08:42:18;;;;;;;8.70;7.40;;;;;;;18.60;50.51;101553.23;1776053;80;21168;-48
2021/04/19 08:44:47;;;;;;;9.70;7.60;;;;;;;18.65;50.41;101547.30;1777703;80;21476;-46
2021/04/19 08:47:20;;;;;;;10.05;8.98;;;;;;;18.75;50.16;101546.00;1778055;80;21148;-48
2021/04/19 08:49:49;;;;;;;12.18;7.92;;;;;;;18.89;49.80;101546.27;1783750;80;21585;-47
2021/04/19 08:52:17;;;;;;;9.10;8.08;;;;;;;18.99;48.58;101537.48;1776934;80;21141;-48
2021/04/19 08:54:46;;;;;;;11.78;8.05;;;;;;;19.02;48.23;101539.51;1777341;80;21160;-49
2021/04/19 08:57:13;;;;;;;8.45;7.53;;;;;;;18.94;47.71;101538.98;1776392;80;21310;-47
2021/04/19 08:59:45;;;;;;;10.03;8.60;;;;;;;18.88;48.30;101540.58;1777251;80;21557;-48
2021/04/19 09:02:15;;;;;;;13.18;9.83;;;;;;;18.90;47.97;101549.77;1771144;80;21310;-46
2021/04/19 09:05:12;;;;;;;11.68;8.95;;;;;;;18.92;48.05;101546.59;1752260;82;21147;-52
2021/04/19 09:07:42;;;;;;;10.13;8.13;;;;;;;18.96;48.31;101538.95;1754263;82;21232;-48
2021/04/19 09:10:14;;;;;;;7.75;7.05;;;;;;;19.01;48.49;101533.85;1755617;82;21220;-50
2021/04/19 09:12:44;;;;;;;8.10;7.30;;;;;;;19.03;48.03;101535.96;1752468;82;21143;-50
2021/04/19 09:15:24;;;;;;;11.08;8.45;;;;;;;18.99;47.86;101530.88;1755918;82;21178;-44
2021/04/19 09:18:10;;;;;;;14.58;9.68;;;;;;;18.95;48.45;101526.67;1746579;82;21115;-47
2021/04/19 09:20:54;;;;;;;8.70;7.85;;;;;;;19.01;48.73;101532.53;1755643;82;21178;-46
2021/04/19 09:23:25;;;;;;;9.23;8.03;;;;;;;19.06;48.21;101529.70;1751768;82;21139;-50
2021/04/19 09:25:53;;;;;;;9.23;8.33;;;;;;;19.08;48.44;101532.64;1749873;82;21182;-45
2021/04/19 09:28:45;;;;;;;9.68;7.65;;;;;;;19.12;48.00;101534.25;1756007;82;21159;-48
2021/04/19 09:31:14;;;;;;;9.35;7.05;;;;;;;19.19;48.49;101533.48;1741964;82;21160;-47
2021/04/19 09:33:42;;;;;;;8.33;7.53;;;;;;;19.29;48.01;101531.69;1722839;83;21211;-45
2021/04/19 09:36:11;;;;;;;7.97;7.20;;;;;;;19.34;47.70;101524.92;1723164;83;21167;-48
2021/04/19 09:38:49;;;;;;;6.72;6.08;;;;;;;19.40;47.52;101524.18;1699284;83;21310;-46
2021/04/19 09:41:17;;;;;;;7.50;6.78;;;;;;;19.44;46.91;101520.47;1684914;85;21633;-48
2021/04/19 09:43:55;;;;;;;7.47;6.67;;;;;;;19.45;46.98;101522.16;1687787;85;21141;-48
2021/04/19 09:46:29;;;;;;;7.50;6.80;;;;;;;19.47;47.21;101522.12;1687745;85;21177;-44
2021/04/19 09:49:06;;;;;;;7.90;7.00;;;;;;;19.52;46.37;101522.74;1810320;79;22619;-45
2021/04/19 09:51:38;;;;;;;8.93;7.28;;;;;;;19.39;46.78;101522.45;1776507;80;21163;-45
2021/04/19 09:54:10;;;;;;;;;;;;;;;19.31;47.38;101516.64;1780048;80;21175;-47
2021/04/19 09:56:48;;;;;;;10.48;9.28;;;;;;;19.23;47.79;101515.27;1778665;80;20224;-45
2021/04/19 09:59:24;;;;;;;16.20;11.93;;;;;;;19.15;48.30;101518.72;1775705;80;21144;-47
2021/04/19 10:01:54;;;;;;;10.75;9.65;;;;;;;19.07;48.53;101520.39;1779478;80;21164;-45
2021/04/19 10:04:24;;;;;;;12.80;11.50;;;;;;;19.02;48.76;101519.72;1783985;80;21121;-45
2021/04/19 10:07:03;;;;;;;8.20;7.37;;;;;;;18.97;48.75;101509.86;1774334;80;21172;-44
2021/04/19 10:09:31;;;;;;;9.73;8.83;;;;;;;18.88;47.92;101511.57;1779680;80;21117;-49
2021/04/19 10:12:01;;;;;;;7.55;6.85;;;;;;;18.81;48.05;101525.09;1734450;80;21175;-45
2021/04/19 10:14:36;;;;;;;7.03;6.37;;;;;;;18.75;48.04;101530.19;1775022;80;21172;-46
2021/04/19 10:17:15;;;;;;;7.22;6.47;;;;;;;18.75;47.99;101528.87;1780190;80;21108;-47
2021/04/19 10:19:45;;;;;;;9.00;6.80;;;;;;;18.75;47.77;101524.91;1773963;80;21140;-47
2021/04/19 10:22:13;;;;;;;9.73;8.83;;;;;;;18.72;47.87;101525.03;1778679;80;21152;-46
2021/04/19 10:24:51;;;;;;;9.83;8.88;;;;;;;18.69;49.05;101529.97;1780168;80;21140;-46
2021/04/19 10:27:29;;;;;;;9.68;8.78;;;;;;;18.73;49.59;101527.22;1702564;83;21664;-49
2021/04/19 10:30:13;;;;;;;11.43;9.13;;;;;;;18.74;49.36;101529.77;1709213;83;21172;-46
2021/04/19 10:32:48;;;;;;;11.15;10.00;;;;;;;18.79;48.59;101534.86;1779699;79;23386;-50
2021/04/19 10:35:37;;;;;;;12.33;10.95;;;;;;;18.75;48.24;101537.23;1740498;82;21177;-46
2021/04/19 10:38:07;;;;;;;13.55;11.83;;;;;;;18.75;48.05;101543.37;1741482;82;21605;-50
2021/04/19 10:40:35;;;;;;;13.88;12.58;;;;;;;18.77;47.65;101535.39;1737073;82;21310;-49
2021/04/19 10:43:11;;;;;;;14.33;12.45;;;;;;;18.76;47.44;101533.20;1736046;82;21184;-46
2021/04/19 10:45:41;;;;;;;23.10;14.50;;;;;;;18.74;47.33;101527.14;1748418;82;21180;-46
2021/04/19 10:48:29;;;;;;;16.42;14.10;;;;;;;18.72;47.02;101522.39;1739009;82;21237;-52
2021/04/19 10:51:16;;;;;;;18.77;14.85;;;;;;;18.68;46.42;101530.04;1747731;82;21195;-45
2021/04/19 10:53:44;;;;;;;18.42;15.23;;;;;;;18.64;46.37;101531.96;1740653;82;21609;-46
2021/04/19 10:59:02;;;;;;;17.67;15.85;;;;;;;18.59;47.32;101531.73;1771633;79;23083;-49
2021/04/19 11:01:32;;;;;;;21.90;15.95;;;;;;;18.53;47.45;101535.95;1689522;84;21195;-51
2021/04/19 11:04:01;;;;;;;21.90;15.85;;;;;;;18.52;47.79;101532.94;1689063;85;21168;-47
2021/04/19 11:06:30;;;;;;;19.02;15.40;;;;;;;18.49;47.97;101527.78;1689066;85;21164;-47
2021/04/19 11:09:06;;;;;;;18.17;16.25;;;;;;;18.48;48.17;101528.27;1689099;85;21175;-47
2021/04/19 11:11:48;;;;;;;17.55;15.75;;;;;;;18.57;47.91;101510.73;1810696;79;22977;-47
2021/04/19 11:14:25;;;;;;;18.65;16.37;;;;;;;18.60;47.40;101515.02;1773147;80;21293;-48
2021/04/19 11:17:06;;;;;;;17.60;15.35;;;;;;;18.68;47.05;101509.81;1773551;80;21172;-46
2021/04/19 11:19:47;;;;;;;18.50;15.65;;;;;;;18.80;46.70;101505.78;1773818;80;21183;-49
2021/04/19 11:22:30;;;;;;;19.25;16.30;;;;;;;18.92;46.29;101503.08;1773827;80;21128;-48
2021/04/19 11:25:18;;;;;;;20.75;16.20;;;;;;;19.03;45.82;101493.76;1770193;80;21302;-49
2021/04/19 11:28:15;;;;;;;18.73;15.00;;;;;;;19.17;45.46;101491.34;1771591;79;22695;-46
2021/04/19 11:30:43;;;;;;;16.20;13.65;;;;;;;19.17;45.65;101487.39;1685472;84;21194;-44
2021/04/19 11:33:20;;;;;;;13.70;12.37;;;;;;;19.22;45.66;101489.83;1686433;84;21216;-46
2021/04/19 11:35:50;;;;;;;14.78;13.28;;;;;;;19.27;45.25;101491.31;1683813;84;21616;-45
2021/04/19 11:38:21;;;;;;;14.10;12.60;;;;;;;19.31;45.17;101481.01;1681365;84;21683;-45
2021/04/19 11:40:59;;;;;;;15.35;12.10;;;;;;;19.35;45.00;101477.33;1683597;84;21175;-50
2021/04/19 11:43:37;;;;;;;11.28;10.20;;;;;;;19.47;44.95;101480.72;1812183;79;22697;-46
2021/04/19 11:46:13;;;;;;;11.50;9.43;;;;;;;19.55;44.34;101482.16;1802705;79;22886;-50
2021/04/19 11:48:44;;;;;;;10.98;9.98;;;;;;;19.53;43.98;101474.31;1772195;80;21160;-50
2021/04/19 11:51:14;;;;;;;10.43;9.48;;;;;;;19.55;43.37;101471.59;1777836;80;21143;-46
2021/04/19 11:53:44;;;;;;;12.07;10.28;;;;;;;19.57;43.15;101475.02;1790847;80;21183;-45